aviador You're here:

KSTP Decoded Metar

ST. PAUL in MN, USA
Report Time2017-09-20 15:53:00
UTC Time2017-09-20 16:36:28
Flight Rules mvfr MVFR
Wind260° at 08 kt
W.Decomp.*RWY 27: 7.8 kt HW 1.8 kt LCW
RWY 31: 4.8 kt HW 6.4 kt LCW
RWY 32: 3.6 kt HW 7.1 kt LCW
W.Rank260° ranks 20
Current wind is below 260° avg. (8.3)
Visibility9999 m
Phenomena:N/A
Clouds:Broken 024 Hf
Broken 033 Hf
Expected CloudBase > 2,000 ft AGL from Temp-Dew spread
Ceiling2,400 ft
Temp22°C (ISA +8)
Dew Point17°C (73% RH)
AAT21.5°C
QNH1007 hPa
Density Alt2,162 ft
Elevation719 ft
Report Wrong Elevation
Raw Report
METAR KSTP 201553Z 26008KT 10SM BKN024 BKN033 22/17 A2974 RMK AO2 SLP064
T02170167=

Extra information for KSTP:More info

Metar Taf Metar & Taf Last 4 Metars F.Rules Stats Wind Profile Meteogram Temp Stats Airport Information Weather charts Add Link Nearby VenuesMetar ALERT Operation Metar Decoded Social comments

AIRNAV info for KSTP